sensor_id;sensor_type;location;lat;lon;timestamp;P1;durP1;ratioP1;P2;durP2;ratioP2
80619;SDS011;69979;53.682;-2.690;2023-10-13T00:01:20;28;;;27;;
80619;SDS011;69979;53.682;-2.690;2023-10-13T00:03:46;29;;;29;;
80619;SDS011;69979;53.682;-2.690;2023-10-13T00:06:11;29;;;29;;
80619;SDS011;69979;53.682;-2.690;2023-10-13T00:08:36;26;;;26;;
80619;SDS011;69979;53.682;-2.690;2023-10-13T00:11:02;27;;;27;;
80619;SDS011;69979;53.682;-2.690;2023-10-13T00:13:28;28;;;27;;
80619;SDS011;69979;53.682;-2.690;2023-10-13T00:15:53;31;;;30;;
80619;SDS011;69979;53.682;-2.690;2023-10-13T00:18:18;32;;;32;;
80619;SDS011;69979;53.682;-2.690;2023-10-13T00:20:44;35;;;34;;
80619;SDS011;69979;53.682;-2.690;2023-10-13T00:23:09;32;;;30;;
80619;SDS011;69979;53.682;-2.690;2023-10-13T00:25:35;28;;;28;;
80619;SDS011;69979;53.682;-2.690;2023-10-13T00:28:01;27;;;27;;
80619;SDS011;69979;53.682;-2.690;2023-10-13T00:30:26;36;;;34;;
80619;SDS011;69979;53.682;-2.690;2023-10-13T00:32:52;31;;;29;;
80619;SDS011;69979;53.682;-2.690;2023-10-13T00:35:18;33;;;32;;
80619;SDS011;69979;53.682;-2.690;2023-10-13T00:37:44;33;;;33;;
80619;SDS011;69979;53.682;-2.690;2023-10-13T00:40:09;28;;;28;;
80619;SDS011;69979;53.682;-2.690;2023-10-13T00:42:34;27;;;27;;
80619;SDS011;69979;53.682;-2.690;2023-10-13T00:45:00;29;;;28;;
80619;SDS011;69979;53.682;-2.690;2023-10-13T00:47:26;29;;;29;;
80619;SDS011;69979;53.682;-2.690;2023-10-13T00:49:51;29;;;29;;
80619;SDS011;69979;53.682;-2.690;2023-10-13T00:52:17;29;;;29;;
80619;SDS011;69979;53.682;-2.690;2023-10-13T00:54:42;29;;;26;;
80619;SDS011;69979;53.682;-2.690;2023-10-13T00:57:08;31;;;31;;
80619;SDS011;69979;53.682;-2.690;2023-10-13T00:59:34;32;;;31;;
80619;SDS011;69979;53.682;-2.690;2023-10-13T01:01:59;29;;;27;;
80619;SDS011;69979;53.682;-2.690;2023-10-13T01:04:24;33;;;31;;
80619;SDS011;69979;53.682;-2.690;2023-10-13T01:06:49;32;;;32;;
80619;SDS011;69979;53.682;-2.690;2023-10-13T01:09:15;30;;;28;;
80619;SDS011;69979;53.682;-2.690;2023-10-13T01:11:41;29;;;29;;
80619;SDS011;69979;53.682;-2.690;2023-10-13T01:14:06;30;;;29;;
80619;SDS011;69979;53.682;-2.690;2023-10-13T01:16:31;29;;;28;;
80619;SDS011;69979;53.682;-2.690;2023-10-13T01:18:57;26;;;25;;
80619;SDS011;69979;53.682;-2.690;2023-10-13T01:21:23;29;;;29;;
80619;SDS011;69979;53.682;-2.690;2023-10-13T01:23:48;25;;;25;;
80619;SDS011;69979;53.682;-2.690;2023-10-13T01:26:14;31;;;30;;
80619;SDS011;69979;53.682;-2.690;2023-10-13T01:28:39;30;;;30;;
80619;SDS011;69979;53.682;-2.690;2023-10-13T01:31:04;31;;;29;;
80619;SDS011;69979;53.682;-2.690;2023-10-13T01:33:30;33;;;33;;
80619;SDS011;69979;53.682;-2.690;2023-10-13T01:35:55;23;;;23;;
80619;SDS011;69979;53.682;-2.690;2023-10-13T01:38:21;29;;;27;;
80619;SDS011;69979;53.682;-2.690;2023-10-13T01:40:47;29;;;29;;
80619;SDS011;69979;53.682;-2.690;2023-10-13T01:43:12;28;;;28;;
80619;SDS011;69979;53.682;-2.690;2023-10-13T01:45:38;28;;;27;;
80619;SDS011;69979;53.682;-2.690;2023-10-13T01:48:03;24;;;23;;
80619;SDS011;69979;53.682;-2.690;2023-10-13T01:50:28;22;;;22;;
80619;SDS011;69979;53.682;-2.690;2023-10-13T01:52:54;21;;;21;;
80619;SDS011;69979;53.682;-2.690;2023-10-13T01:55:19;19;;;18;;
80619;SDS011;69979;53.682;-2.690;2023-10-13T01:57:45;22;;;21;;
80619;SDS011;69979;53.682;-2.690;2023-10-13T02:00:11;15;;;15;;
80619;SDS011;69979;53.682;-2.690;2023-10-13T02:02:36;23;;;21;;
80619;SDS011;69979;53.682;-2.690;2023-10-13T02:05:01;17;;;16;;
80619;SDS011;69979;53.682;-2.690;2023-10-13T02:07:27;19;;;18;;
80619;SDS011;69979;53.682;-2.690;2023-10-13T02:09:52;15;;;14;;
80619;SDS011;69979;53.682;-2.690;2023-10-13T02:12:18;14;;;13;;
80619;SDS011;69979;53.682;-2.690;2023-10-13T02:14:43;14;;;14;;
80619;SDS011;69979;53.682;-2.690;2023-10-13T02:17:09;15;;;14;;
80619;SDS011;69979;53.682;-2.690;2023-10-13T02:19:34;14;;;13;;
80619;SDS011;69979;53.682;-2.690;2023-10-13T02:22:00;17;;;16;;
80619;SDS011;69979;53.682;-2.690;2023-10-13T02:24:26;13;;;12;;
80619;SDS011;69979;53.682;-2.690;2023-10-13T02:26:51;15;;;12;;
80619;SDS011;69979;53.682;-2.690;2023-10-13T02:29:17;14;;;14;;
80619;SDS011;69979;53.682;-2.690;2023-10-13T02:31:42;15;;;15;;
80619;SDS011;69979;53.682;-2.690;2023-10-13T02:34:07;14;;;14;;
80619;SDS011;69979;53.682;-2.690;2023-10-13T02:36:33;14;;;14;;
80619;SDS011;69979;53.682;-2.690;2023-10-13T02:38:58;13;;;13;;
80619;SDS011;69979;53.682;-2.690;2023-10-13T02:41:24;12;;;12;;
80619;SDS011;69979;53.682;-2.690;2023-10-13T02:43:49;15;;;15;;
80619;SDS011;69979;53.682;-2.690;2023-10-13T02:46:14;13;;;13;;
80619;SDS011;69979;53.682;-2.690;2023-10-13T02:48:40;12;;;12;;
80619;SDS011;69979;53.682;-2.690;2023-10-13T02:51:06;13;;;12;;
80619;SDS011;69979;53.682;-2.690;2023-10-13T02:53:30;14;;;14;;
80619;SDS011;69979;53.682;-2.690;2023-10-13T02:55:56;13;;;13;;
80619;SDS011;69979;53.682;-2.690;2023-10-13T02:58:21;10;;;10;;
80619;SDS011;69979;53.682;-2.690;2023-10-13T03:00:47;12;;;12;;
80619;SDS011;69979;53.682;-2.690;2023-10-13T03:03:12;14;;;13;;
80619;SDS011;69979;53.682;-2.690;2023-10-13T03:05:38;9;;;9;;
80619;SDS011;69979;53.682;-2.690;2023-10-13T03:08:03;12;;;12;;
80619;SDS011;69979;53.682;-2.690;2023-10-13T03:10:29;11;;;11;;
80619;SDS011;69979;53.682;-2.690;2023-10-13T03:12:54;10;;;9;;
80619;SDS011;69979;53.682;-2.690;2023-10-13T03:15:20;10;;;10;;
80619;SDS011;69979;53.682;-2.690;2023-10-13T03:17:45;11;;;10;;
80619;SDS011;69979;53.682;-2.690;2023-10-13T03:20:11;9;;;9;;
80619;SDS011;69979;53.682;-2.690;2023-10-13T03:22:36;8;;;8;;
80619;SDS011;69979;53.682;-2.690;2023-10-13T03:25:02;7;;;7;;
80619;SDS011;69979;53.682;-2.690;2023-10-13T03:27:27;8;;;8;;
80619;SDS011;69979;53.682;-2.690;2023-10-13T03:29:53;6;;;6;;
80619;SDS011;69979;53.682;-2.690;2023-10-13T03:32:18;6;;;6;;
80619;SDS011;69979;53.682;-2.690;2023-10-13T03:34:44;6;;;6;;
80619;SDS011;69979;53.682;-2.690;2023-10-13T03:37:09;8;;;8;;
80619;SDS011;69979;53.682;-2.690;2023-10-13T03:39:35;6;;;6;;
80619;SDS011;69979;53.682;-2.690;2023-10-13T03:42:00;5;;;5;;
80619;SDS011;69979;53.682;-2.690;2023-10-13T03:44:25;9;;;9;;
80619;SDS011;69979;53.682;-2.690;2023-10-13T03:46:51;7;;;7;;
80619;SDS011;69979;53.682;-2.690;2023-10-13T03:49:16;7;;;7;;
80619;SDS011;69979;53.682;-2.690;2023-10-13T03:51:42;5;;;5;;
80619;SDS011;69979;53.682;-2.690;2023-10-13T03:54:07;4;;;4;;
80619;SDS011;69979;53.682;-2.690;2023-10-13T03:56:33;5;;;5;;
80619;SDS011;69979;53.682;-2.690;2023-10-13T03:58:59;7;;;7;;
80619;SDS011;69979;53.682;-2.690;2023-10-13T04:01:24;4;;;4;;
80619;SDS011;69979;53.682;-2.690;2023-10-13T04:03:49;5;;;5;;
80619;SDS011;69979;53.682;-2.690;2023-10-13T04:06:15;5;;;5;;
80619;SDS011;69979;53.682;-2.690;2023-10-13T04:08:40;6;;;6;;
80619;SDS011;69979;53.682;-2.690;2023-10-13T04:11:06;4;;;4;;
80619;SDS011;69979;53.682;-2.690;2023-10-13T04:13:31;4;;;4;;
80619;SDS011;69979;53.682;-2.690;2023-10-13T04:15:57;5;;;5;;
80619;SDS011;69979;53.682;-2.690;2023-10-13T04:18:22;5;;;5;;
80619;SDS011;69979;53.682;-2.690;2023-10-13T04:20:52;5;;;5;;
80619;SDS011;69979;53.682;-2.690;2023-10-13T04:23:13;5;;;5;;
80619;SDS011;69979;53.682;-2.690;2023-10-13T04:25:39;5;;;5;;
80619;SDS011;69979;53.682;-2.690;2023-10-13T04:28:05;5;;;4;;
80619;SDS011;69979;53.682;-2.690;2023-10-13T04:30:33;5;;;5;;
80619;SDS011;69979;53.682;-2.690;2023-10-13T04:32:55;4;;;4;;
80619;SDS011;69979;53.682;-2.690;2023-10-13T04:35:21;3;;;3;;
80619;SDS011;69979;53.682;-2.690;2023-10-13T04:37:46;3;;;3;;
80619;SDS011;69979;53.682;-2.690;2023-10-13T04:40:12;5;;;5;;
80619;SDS011;69979;53.682;-2.690;2023-10-13T04:42:37;3;;;3;;
80619;SDS011;69979;53.682;-2.690;2023-10-13T04:45:03;3;;;3;;
80619;SDS011;69979;53.682;-2.690;2023-10-13T04:47:28;4;;;4;;
80619;SDS011;69979;53.682;-2.690;2023-10-13T04:49:54;5;;;4;;
80619;SDS011;69979;53.682;-2.690;2023-10-13T04:52:19;4;;;4;;
80619;SDS011;69979;53.682;-2.690;2023-10-13T04:54:45;2;;;2;;
80619;SDS011;69979;53.682;-2.690;2023-10-13T04:57:10;5;;;5;;
80619;SDS011;69979;53.682;-2.690;2023-10-13T04:59:36;3;;;3;;
80619;SDS011;69979;53.682;-2.690;2023-10-13T05:02:01;4;;;4;;
80619;SDS011;69979;53.682;-2.690;2023-10-13T05:04:27;3;;;3;;
80619;SDS011;69979;53.682;-2.690;2023-10-13T05:06:52;4;;;4;;
80619;SDS011;69979;53.682;-2.690;2023-10-13T05:09:18;3;;;3;;
80619;SDS011;69979;53.682;-2.690;2023-10-13T05:11:43;4;;;4;;
80619;SDS011;69979;53.682;-2.690;2023-10-13T05:14:08;4;;;4;;
80619;SDS011;69979;53.682;-2.690;2023-10-13T05:16:34;4;;;4;;
80619;SDS011;69979;53.682;-2.690;2023-10-13T05:19:00;5;;;4;;
80619;SDS011;69979;53.682;-2.690;2023-10-13T05:21:25;4;;;4;;
80619;SDS011;69979;53.682;-2.690;2023-10-13T05:23:50;4;;;4;;
80619;SDS011;69979;53.682;-2.690;2023-10-13T05:26:16;4;;;4;;
80619;SDS011;69979;53.682;-2.690;2023-10-13T05:28:41;4;;;4;;
80619;SDS011;69979;53.682;-2.690;2023-10-13T05:31:07;6;;;6;;
80619;SDS011;69979;53.682;-2.690;2023-10-13T05:33:32;5;;;5;;
80619;SDS011;69979;53.682;-2.690;2023-10-13T05:35:58;6;;;6;;
80619;SDS011;69979;53.682;-2.690;2023-10-13T05:38:23;4;;;4;;
80619;SDS011;69979;53.682;-2.690;2023-10-13T05:40:51;5;;;4;;
80619;SDS011;69979;53.682;-2.690;2023-10-13T05:43:14;6;;;6;;
80619;SDS011;69979;53.682;-2.690;2023-10-13T05:45:40;5;;;5;;
80619;SDS011;69979;53.682;-2.690;2023-10-13T05:48:05;4;;;4;;
80619;SDS011;69979;53.682;-2.690;2023-10-13T05:50:30;5;;;5;;
80619;SDS011;69979;53.682;-2.690;2023-10-13T05:52:56;5;;;5;;
80619;SDS011;69979;53.682;-2.690;2023-10-13T05:55:22;5;;;5;;
80619;SDS011;69979;53.682;-2.690;2023-10-13T05:57:47;4;;;4;;
80619;SDS011;69979;53.682;-2.690;2023-10-13T06:00:13;3;;;3;;
80619;SDS011;69979;53.682;-2.690;2023-10-13T06:02:38;5;;;4;;
80619;SDS011;69979;53.682;-2.690;2023-10-13T06:05:03;6;;;6;;
80619;SDS011;69979;53.682;-2.690;2023-10-13T06:07:28;3;;;3;;
80619;SDS011;69979;53.682;-2.690;2023-10-13T06:09:54;5;;;5;;
80619;SDS011;69979;53.682;-2.690;2023-10-13T06:12:19;4;;;4;;
80619;SDS011;69979;53.682;-2.690;2023-10-13T06:14:45;3;;;3;;
80619;SDS011;69979;53.682;-2.690;2023-10-13T06:17:10;3;;;3;;
80619;SDS011;69979;53.682;-2.690;2023-10-13T06:19:36;3;;;3;;
80619;SDS011;69979;53.682;-2.690;2023-10-13T06:22:01;3;;;3;;
80619;SDS011;69979;53.682;-2.690;2023-10-13T06:24:26;3;;;3;;
80619;SDS011;69979;53.682;-2.690;2023-10-13T06:26:52;3;;;3;;
80619;SDS011;69979;53.682;-2.690;2023-10-13T06:29:17;4;;;4;;
80619;SDS011;69979;53.682;-2.690;2023-10-13T06:31:42;4;;;4;;
80619;SDS011;69979;53.682;-2.690;2023-10-13T06:34:08;5;;;5;;
80619;SDS011;69979;53.682;-2.690;2023-10-13T06:36:33;6;;;6;;
80619;SDS011;69979;53.682;-2.690;2023-10-13T06:38:59;8;;;8;;
80619;SDS011;69979;53.682;-2.690;2023-10-13T06:41:24;8;;;7;;
80619;SDS011;69979;53.682;-2.690;2023-10-13T06:43:50;7;;;7;;
80619;SDS011;69979;53.682;-2.690;2023-10-13T06:46:15;9;;;8;;
80619;SDS011;69979;53.682;-2.690;2023-10-13T06:48:41;10;;;10;;
80619;SDS011;69979;53.682;-2.690;2023-10-13T06:51:06;13;;;12;;
80619;SDS011;69979;53.682;-2.690;2023-10-13T06:53:31;12;;;11;;
80619;SDS011;69979;53.682;-2.690;2023-10-13T06:55:57;17;;;16;;
80619;SDS011;69979;53.682;-2.690;2023-10-13T06:58:22;17;;;17;;
80619;SDS011;69979;53.682;-2.690;2023-10-13T07:00:48;14;;;13;;
80619;SDS011;69979;53.682;-2.690;2023-10-13T07:03:13;13;;;13;;
80619;SDS011;69979;53.682;-2.690;2023-10-13T07:05:39;12;;;12;;
80619;SDS011;69979;53.682;-2.690;2023-10-13T07:08:04;11;;;11;;
80619;SDS011;69979;53.682;-2.690;2023-10-13T07:10:29;12;;;12;;
80619;SDS011;69979;53.682;-2.690;2023-10-13T07:12:54;11;;;11;;
80619;SDS011;69979;53.682;-2.690;2023-10-13T07:15:20;12;;;11;;
80619;SDS011;69979;53.682;-2.690;2023-10-13T07:17:45;11;;;10;;
80619;SDS011;69979;53.682;-2.690;2023-10-13T07:20:11;12;;;12;;
80619;SDS011;69979;53.682;-2.690;2023-10-13T07:22:36;9;;;9;;
80619;SDS011;69979;53.682;-2.690;2023-10-13T07:25:02;10;;;10;;
80619;SDS011;69979;53.682;-2.690;2023-10-13T07:27:27;11;;;11;;
80619;SDS011;69979;53.682;-2.690;2023-10-13T07:29:54;11;;;11;;
80619;SDS011;69979;53.682;-2.690;2023-10-13T07:32:18;9;;;9;;
80619;SDS011;69979;53.682;-2.690;2023-10-13T07:34:44;8;;;8;;
80619;SDS011;69979;53.682;-2.690;2023-10-13T07:37:09;10;;;9;;
80619;SDS011;69979;53.682;-2.690;2023-10-13T07:39:35;9;;;9;;
80619;SDS011;69979;53.682;-2.690;2023-10-13T07:42:00;10;;;10;;
80619;SDS011;69979;53.682;-2.690;2023-10-13T07:44:25;8;;;8;;
80619;SDS011;69979;53.682;-2.690;2023-10-13T07:46:52;6;;;6;;
80619;SDS011;69979;53.682;-2.690;2023-10-13T07:49:16;6;;;6;;
80619;SDS011;69979;53.682;-2.690;2023-10-13T07:51:42;8;;;6;;
80619;SDS011;69979;53.682;-2.690;2023-10-13T07:54:07;6;;;6;;
80619;SDS011;69979;53.682;-2.690;2023-10-13T07:56:33;6;;;6;;
80619;SDS011;69979;53.682;-2.690;2023-10-13T07:58:58;5;;;5;;
80619;SDS011;69979;53.682;-2.690;2023-10-13T08:01:24;8;;;8;;
80619;SDS011;69979;53.682;-2.690;2023-10-13T08:03:49;6;;;6;;
80619;SDS011;69979;53.682;-2.690;2023-10-13T08:06:16;6;;;6;;
80619;SDS011;69979;53.682;-2.690;2023-10-13T08:08:40;7;;;7;;
80619;SDS011;69979;53.682;-2.690;2023-10-13T08:11:06;8;;;8;;
80619;SDS011;69979;53.682;-2.690;2023-10-13T08:13:31;7;;;7;;
80619;SDS011;69979;53.682;-2.690;2023-10-13T08:15:57;7;;;7;;
80619;SDS011;69979;53.682;-2.690;2023-10-13T08:18:22;7;;;7;;
80619;SDS011;69979;53.682;-2.690;2023-10-13T08:20:47;7;;;7;;
80619;SDS011;69979;53.682;-2.690;2023-10-13T08:23:13;9;;;9;;
80619;SDS011;69979;53.682;-2.690;2023-10-13T08:25:39;8;;;8;;
80619;SDS011;69979;53.682;-2.690;2023-10-13T08:28:04;6;;;6;;
80619;SDS011;69979;53.682;-2.690;2023-10-13T08:30:29;8;;;7;;
80619;SDS011;69979;53.682;-2.690;2023-10-13T08:32:55;10;;;9;;
80619;SDS011;69979;53.682;-2.690;2023-10-13T08:35:20;10;;;10;;
80619;SDS011;69979;53.682;-2.690;2023-10-13T08:37:45;10;;;10;;
80619;SDS011;69979;53.682;-2.690;2023-10-13T08:40:11;11;;;11;;
80619;SDS011;69979;53.682;-2.690;2023-10-13T08:42:37;11;;;11;;
80619;SDS011;69979;53.682;-2.690;2023-10-13T08:45:02;10;;;10;;
80619;SDS011;69979;53.682;-2.690;2023-10-13T08:47:27;11;;;11;;
80619;SDS011;69979;53.682;-2.690;2023-10-13T08:49:53;10;;;10;;
80619;SDS011;69979;53.682;-2.690;2023-10-13T08:52:18;10;;;10;;
80619;SDS011;69979;53.682;-2.690;2023-10-13T08:54:43;15;;;15;;
80619;SDS011;69979;53.682;-2.690;2023-10-13T08:57:09;13;;;12;;
80619;SDS011;69979;53.682;-2.690;2023-10-13T08:59:34;14;;;13;;
80619;SDS011;69979;53.682;-2.690;2023-10-13T09:02:00;13;;;13;;
80619;SDS011;69979;53.682;-2.690;2023-10-13T09:04:25;14;;;14;;
80619;SDS011;69979;53.682;-2.690;2023-10-13T09:06:51;12;;;12;;
80619;SDS011;69979;53.682;-2.690;2023-10-13T09:09:16;13;;;13;;
80619;SDS011;69979;53.682;-2.690;2023-10-13T09:11:41;11;;;11;;
80619;SDS011;69979;53.682;-2.690;2023-10-13T09:16:32;13;;;13;;
80619;SDS011;69979;53.682;-2.690;2023-10-13T09:19:01;16;;;16;;
80619;SDS011;69979;53.682;-2.690;2023-10-13T09:21:24;13;;;13;;
80619;SDS011;69979;53.682;-2.690;2023-10-13T09:23:49;17;;;16;;
80619;SDS011;69979;53.682;-2.690;2023-10-13T09:26:15;15;;;14;;
80619;SDS011;69979;53.682;-2.690;2023-10-13T09:28:40;11;;;9;;
80619;SDS011;69979;53.682;-2.690;2023-10-13T09:31:06;4;;;4;;
80619;SDS011;69979;53.682;-2.690;2023-10-13T09:33:31;3;;;3;;
80619;SDS011;69979;53.682;-2.690;2023-10-13T09:35:57;2;;;2;;
80619;SDS011;69979;53.682;-2.690;2023-10-13T09:38:22;3;;;2;;
80619;SDS011;69979;53.682;-2.690;2023-10-13T09:40:48;2;;;2;;
80619;SDS011;69979;53.682;-2.690;2023-10-13T09:43:13;1;;;1;;
80619;SDS011;69979;53.682;-2.690;2023-10-13T09:45:39;2;;;2;;
80619;SDS011;69979;53.682;-2.690;2023-10-13T09:48:06;2;;;2;;
80619;SDS011;69979;53.682;-2.690;2023-10-13T09:50:30;2;;;2;;
80619;SDS011;69979;53.682;-2.690;2023-10-13T09:52:55;2;;;2;;
80619;SDS011;69979;53.682;-2.690;2023-10-13T09:55:23;3;;;3;;
80619;SDS011;69979;53.682;-2.690;2023-10-13T09:57:48;4;;;3;;
80619;SDS011;69979;53.682;-2.690;2023-10-13T10:00:13;2;;;2;;
80619;SDS011;69979;53.682;-2.690;2023-10-13T10:02:38;3;;;3;;
80619;SDS011;69979;53.682;-2.690;2023-10-13T10:05:03;4;;;4;;
80619;SDS011;69979;53.682;-2.690;2023-10-13T10:07:29;2;;;2;;
80619;SDS011;69979;53.682;-2.690;2023-10-13T10:09:56;2;;;1;;
80619;SDS011;69979;53.682;-2.690;2023-10-13T10:12:23;1;;;1;;
80619;SDS011;69979;53.682;-2.690;2023-10-13T10:14:58;1;;;1;;
80619;SDS011;69979;53.682;-2.690;2023-10-13T10:17:11;1;;;1;;
80619;SDS011;69979;53.682;-2.690;2023-10-13T10:22:02;2;;;2;;
80619;SDS011;69979;53.682;-2.690;2023-10-13T10:24:27;2;;;2;;
80619;SDS011;69979;53.682;-2.690;2023-10-13T10:26:53;1;;;1;;
80619;SDS011;69979;53.682;-2.690;2023-10-13T10:29:18;1;;;1;;
80619;SDS011;69979;53.682;-2.690;2023-10-13T10:31:44;0;;;0;;
80619;SDS011;69979;53.682;-2.690;2023-10-13T10:34:11;1;;;0;;
80619;SDS011;69979;53.682;-2.690;2023-10-13T10:36:35;0;;;0;;
80619;SDS011;69979;53.682;-2.690;2023-10-13T10:39:00;0;;;0;;
80619;SDS011;69979;53.682;-2.690;2023-10-13T10:41:26;0;;;0;;
80619;SDS011;69979;53.682;-2.690;2023-10-13T10:43:52;0;;;0;;
80619;SDS011;69979;53.682;-2.690;2023-10-13T10:46:18;0;;;0;;
80619;SDS011;69979;53.682;-2.690;2023-10-13T10:48:43;0;;;0;;
80619;SDS011;69979;53.682;-2.690;2023-10-13T10:51:09;1;;;1;;
80619;SDS011;69979;53.682;-2.690;2023-10-13T10:53:34;0;;;0;;
80619;SDS011;69979;53.682;-2.690;2023-10-13T10:56:04;1;;;1;;
80619;SDS011;69979;53.682;-2.690;2023-10-13T10:58:25;0;;;0;;
80619;SDS011;69979;53.682;-2.690;2023-10-13T11:00:50;1;;;0;;
80619;SDS011;69979;53.682;-2.690;2023-10-13T11:03:16;0;;;0;;
80619;SDS011;69979;53.682;-2.690;2023-10-13T11:05:43;1;;;1;;
80619;SDS011;69979;53.682;-2.690;2023-10-13T11:08:07;2;;;1;;
80619;SDS011;69979;53.682;-2.690;2023-10-13T11:10:33;2;;;2;;
80619;SDS011;69979;53.682;-2.690;2023-10-13T11:12:59;1;;;1;;
80619;SDS011;69979;53.682;-2.690;2023-10-13T11:15:24;2;;;1;;
80619;SDS011;69979;53.682;-2.690;2023-10-13T11:17:49;2;;;2;;
80619;SDS011;69979;53.682;-2.690;2023-10-13T11:20:16;3;;;1;;
80619;SDS011;69979;53.682;-2.690;2023-10-13T11:22:40;1;;;1;;
80619;SDS011;69979;53.682;-2.690;2023-10-13T11:25:06;1;;;1;;
80619;SDS011;69979;53.682;-2.690;2023-10-13T11:27:32;1;;;1;;
80619;SDS011;69979;53.682;-2.690;2023-10-13T11:29:57;2;;;2;;
80619;SDS011;69979;53.682;-2.690;2023-10-13T11:32:22;4;;;3;;
80619;SDS011;69979;53.682;-2.690;2023-10-13T11:34:48;1;;;1;;
80619;SDS011;69979;53.682;-2.690;2023-10-13T11:37:14;2;;;2;;
80619;SDS011;69979;53.682;-2.690;2023-10-13T11:39:39;2;;;1;;
80619;SDS011;69979;53.682;-2.690;2023-10-13T11:42:05;1;;;1;;
80619;SDS011;69979;53.682;-2.690;2023-10-13T11:44:30;2;;;2;;
80619;SDS011;69979;53.682;-2.690;2023-10-13T11:46:56;2;;;2;;
80619;SDS011;69979;53.682;-2.690;2023-10-13T11:49:22;2;;;2;;
80619;SDS011;69979;53.682;-2.690;2023-10-13T11:51:47;2;;;2;;
80619;SDS011;69979;53.682;-2.690;2023-10-13T11:54:13;3;;;2;;
80619;SDS011;69979;53.682;-2.690;2023-10-13T11:56:38;1;;;1;;
80619;SDS011;69979;53.682;-2.690;2023-10-13T11:59:04;2;;;2;;
80619;SDS011;69979;53.682;-2.690;2023-10-13T12:01:29;3;;;3;;
80619;SDS011;69979;53.682;-2.690;2023-10-13T12:03:55;4;;;4;;
80619;SDS011;69979;53.682;-2.690;2023-10-13T12:06:20;2;;;2;;
80619;SDS011;69979;53.682;-2.690;2023-10-13T12:08:46;2;;;2;;
80619;SDS011;69979;53.682;-2.690;2023-10-13T12:11:11;2;;;2;;
80619;SDS011;69979;53.682;-2.690;2023-10-13T12:13:37;3;;;3;;
80619;SDS011;69979;53.682;-2.690;2023-10-13T12:16:02;1;;;1;;
80619;SDS011;69979;53.682;-2.690;2023-10-13T12:18:28;3;;;2;;
80619;SDS011;69979;53.682;-2.690;2023-10-13T12:20:54;2;;;2;;
80619;SDS011;69979;53.682;-2.690;2023-10-13T12:23:19;2;;;2;;
80619;SDS011;69979;53.682;-2.690;2023-10-13T12:25:45;4;;;3;;
80619;SDS011;69979;53.682;-2.690;2023-10-13T12:28:10;2;;;2;;
80619;SDS011;69979;53.682;-2.690;2023-10-13T12:30:36;2;;;2;;
80619;SDS011;69979;53.682;-2.690;2023-10-13T12:33:01;1;;;1;;
80619;SDS011;69979;53.682;-2.690;2023-10-13T12:35:27;2;;;2;;
80619;SDS011;69979;53.682;-2.690;2023-10-13T12:37:52;3;;;1;;
80619;SDS011;69979;53.682;-2.690;2023-10-13T12:40:18;1;;;1;;
80619;SDS011;69979;53.682;-2.690;2023-10-13T12:42:43;1;;;1;;
80619;SDS011;69979;53.682;-2.690;2023-10-13T12:45:09;1;;;1;;
80619;SDS011;69979;53.682;-2.690;2023-10-13T12:47:34;2;;;2;;
80619;SDS011;69979;53.682;-2.690;2023-10-13T12:50:00;3;;;2;;
80619;SDS011;69979;53.682;-2.690;2023-10-13T12:52:26;4;;;3;;
80619;SDS011;69979;53.682;-2.690;2023-10-13T12:54:51;3;;;2;;
80619;SDS011;69979;53.682;-2.690;2023-10-13T12:57:17;2;;;1;;
80619;SDS011;69979;53.682;-2.690;2023-10-13T12:59:43;4;;;3;;
80619;SDS011;69979;53.682;-2.690;2023-10-13T13:02:08;2;;;2;;
80619;SDS011;69979;53.682;-2.690;2023-10-13T13:04:33;4;;;1;;
80619;SDS011;69979;53.682;-2.690;2023-10-13T13:06:59;2;;;2;;
80619;SDS011;69979;53.682;-2.690;2023-10-13T13:09:24;2;;;2;;
80619;SDS011;69979;53.682;-2.690;2023-10-13T13:11:50;2;;;2;;
80619;SDS011;69979;53.682;-2.690;2023-10-13T13:14:16;1;;;1;;
80619;SDS011;69979;53.682;-2.690;2023-10-13T13:16:41;3;;;2;;
80619;SDS011;69979;53.682;-2.690;2023-10-13T13:19:07;2;;;1;;
80619;SDS011;69979;53.682;-2.690;2023-10-13T13:21:32;3;;;2;;
80619;SDS011;69979;53.682;-2.690;2023-10-13T13:23:58;1;;;1;;
80619;SDS011;69979;53.682;-2.690;2023-10-13T13:26:23;1;;;1;;
80619;SDS011;69979;53.682;-2.690;2023-10-13T13:28:49;2;;;2;;
80619;SDS011;69979;53.682;-2.690;2023-10-13T13:31:14;2;;;2;;
80619;SDS011;69979;53.682;-2.690;2023-10-13T13:33:40;4;;;3;;
80619;SDS011;69979;53.682;-2.690;2023-10-13T13:36:06;5;;;4;;
80619;SDS011;69979;53.682;-2.690;2023-10-13T13:38:31;2;;;2;;
80619;SDS011;69979;53.682;-2.690;2023-10-13T13:40:56;4;;;4;;
80619;SDS011;69979;53.682;-2.690;2023-10-13T13:43:22;5;;;5;;
80619;SDS011;69979;53.682;-2.690;2023-10-13T13:45:47;4;;;3;;
80619;SDS011;69979;53.682;-2.690;2023-10-13T13:48:13;6;;;4;;
80619;SDS011;69979;53.682;-2.690;2023-10-13T13:50:39;4;;;4;;
80619;SDS011;69979;53.682;-2.690;2023-10-13T13:53:04;3;;;3;;
80619;SDS011;69979;53.682;-2.690;2023-10-13T13:55:33;7;;;2;;
80619;SDS011;69979;53.682;-2.690;2023-10-13T13:57:55;5;;;5;;
80619;SDS011;69979;53.682;-2.690;2023-10-13T14:00:20;2;;;2;;
80619;SDS011;69979;53.682;-2.690;2023-10-13T14:02:46;3;;;3;;
80619;SDS011;69979;53.682;-2.690;2023-10-13T14:05:11;4;;;2;;
80619;SDS011;69979;53.682;-2.690;2023-10-13T14:07:37;4;;;3;;
80619;SDS011;69979;53.682;-2.690;2023-10-13T14:10:03;2;;;2;;
80619;SDS011;69979;53.682;-2.690;2023-10-13T14:12:28;4;;;3;;
80619;SDS011;69979;53.682;-2.690;2023-10-13T14:14:53;5;;;4;;
80619;SDS011;69979;53.682;-2.690;2023-10-13T14:17:19;5;;;2;;
80619;SDS011;69979;53.682;-2.690;2023-10-13T14:19:45;4;;;3;;
80619;SDS011;69979;53.682;-2.690;2023-10-13T14:22:10;3;;;3;;
80619;SDS011;69979;53.682;-2.690;2023-10-13T14:24:36;3;;;2;;
80619;SDS011;69979;53.682;-2.690;2023-10-13T14:27:02;3;;;2;;
80619;SDS011;69979;53.682;-2.690;2023-10-13T14:29:27;2;;;1;;
80619;SDS011;69979;53.682;-2.690;2023-10-13T14:31:52;1;;;1;;
80619;SDS011;69979;53.682;-2.690;2023-10-13T14:34:18;5;;;3;;
80619;SDS011;69979;53.682;-2.690;2023-10-13T14:36:43;3;;;2;;
80619;SDS011;69979;53.682;-2.690;2023-10-13T14:39:09;2;;;1;;
80619;SDS011;69979;53.682;-2.690;2023-10-13T14:41:34;3;;;3;;
80619;SDS011;69979;53.682;-2.690;2023-10-13T14:44:00;2;;;2;;
80619;SDS011;69979;53.682;-2.690;2023-10-13T14:46:25;1;;;1;;
80619;SDS011;69979;53.682;-2.690;2023-10-13T14:48:51;2;;;2;;
80619;SDS011;69979;53.682;-2.690;2023-10-13T14:51:16;3;;;2;;
80619;SDS011;69979;53.682;-2.690;2023-10-13T14:53:42;2;;;1;;
80619;SDS011;69979;53.682;-2.690;2023-10-13T14:56:07;2;;;2;;
80619;SDS011;69979;53.682;-2.690;2023-10-13T14:58:33;2;;;2;;
80619;SDS011;69979;53.682;-2.690;2023-10-13T15:00:58;3;;;3;;
80619;SDS011;69979;53.682;-2.690;2023-10-13T15:03:24;3;;;2;;
80619;SDS011;69979;53.682;-2.690;2023-10-13T15:05:49;1;;;1;;
80619;SDS011;69979;53.682;-2.690;2023-10-13T15:08:15;2;;;2;;
80619;SDS011;69979;53.682;-2.690;2023-10-13T15:10:41;3;;;2;;
80619;SDS011;69979;53.682;-2.690;2023-10-13T15:13:06;2;;;2;;
80619;SDS011;69979;53.682;-2.690;2023-10-13T15:15:32;2;;;2;;
80619;SDS011;69979;53.682;-2.690;2023-10-13T15:17:57;2;;;2;;
80619;SDS011;69979;53.682;-2.690;2023-10-13T15:20:23;1;;;1;;
80619;SDS011;69979;53.682;-2.690;2023-10-13T15:22:48;4;;;3;;
80619;SDS011;69979;53.682;-2.690;2023-10-13T15:25:14;1;;;1;;
80619;SDS011;69979;53.682;-2.690;2023-10-13T15:27:39;2;;;2;;
80619;SDS011;69979;53.682;-2.690;2023-10-13T15:30:06;5;;;3;;
80619;SDS011;69979;53.682;-2.690;2023-10-13T15:32:31;2;;;1;;
80619;SDS011;69979;53.682;-2.690;2023-10-13T15:34:56;2;;;1;;
80619;SDS011;69979;53.682;-2.690;2023-10-13T15:37:22;3;;;2;;
80619;SDS011;69979;53.682;-2.690;2023-10-13T15:39:47;5;;;4;;
80619;SDS011;69979;53.682;-2.690;2023-10-13T15:42:13;2;;;1;;
80619;SDS011;69979;53.682;-2.690;2023-10-13T15:44:38;2;;;2;;